createdAt,value
2023-01-11T00:01:23.944Z,7.29
2023-01-11T00:04:13.743Z,7.40
2023-01-11T00:07:02.269Z,7.43
2023-01-11T00:09:50.747Z,7.39
2023-01-11T00:12:39.210Z,7.57
2023-01-11T00:15:27.643Z,7.41
2023-01-11T00:18:16.161Z,7.13
2023-01-11T00:21:06.738Z,7.40
2023-01-11T00:23:55.207Z,7.38
2023-01-11T00:26:43.677Z,7.39
2023-01-11T00:29:32.118Z,7.50
2023-01-11T00:32:20.544Z,7.39
2023-01-11T00:35:09.654Z,7.45
2023-01-11T00:37:59.711Z,7.35
2023-01-11T00:40:48.124Z,7.46
2023-01-11T00:43:54.470Z,7.36
2023-01-11T00:47:00.422Z,7.39
2023-01-11T00:49:48.904Z,7.34
2023-01-11T00:52:37.491Z,7.54
2023-01-11T00:55:27.663Z,7.41
2023-01-11T00:58:16.155Z,7.42
2023-01-11T01:01:07.693Z,7.39
2023-01-11T01:03:56.159Z,7.40
2023-01-11T01:06:44.610Z,7.37
2023-01-11T01:09:33.488Z,7.35
2023-01-11T01:12:37.236Z,7.37
2023-01-11T01:15:28.945Z,7.33
2023-01-11T01:18:17.382Z,7.32
2023-01-11T01:21:05.922Z,7.27
2023-01-11T01:23:54.597Z,7.25
2023-01-11T01:26:43.071Z,7.35
2023-01-11T01:29:32.861Z,7.25
2023-01-11T01:32:21.405Z,7.27
2023-01-11T01:35:10.494Z,7.19
2023-01-11T01:37:58.947Z,7.25
2023-01-11T01:40:48.646Z,7.20
2023-01-11T01:43:48.904Z,7.27
2023-01-11T01:46:38.781Z,7.25
2023-01-11T01:49:27.320Z,7.32
2023-01-11T01:52:15.838Z,7.26
2023-01-11T01:55:08.630Z,7.24
2023-01-11T01:57:58.374Z,7.26
2023-01-11T02:00:47.342Z,7.30
2023-01-11T02:03:37.113Z,7.21
2023-01-11T02:06:27.336Z,7.28
2023-01-11T02:09:22.273Z,7.18
2023-01-11T02:12:10.694Z,7.21
2023-01-11T02:15:00.871Z,7.22
2023-01-11T02:17:49.356Z,7.15
2023-01-11T02:20:50.107Z,7.23
2023-01-11T02:24:01.872Z,7.22
2023-01-11T02:27:25.355Z,7.32
2023-01-11T02:30:21.491Z,7.36
2023-01-11T02:33:18.004Z,7.52
2023-01-11T02:36:10.499Z,7.24
2023-01-11T02:39:03.678Z,7.78
2023-01-11T02:42:14.761Z,7.93
2023-01-11T02:45:08.550Z,8.30
2023-01-11T02:48:01.262Z,8.61
2023-01-11T02:50:53.080Z,8.61
2023-01-11T02:53:45.854Z,8.88
2023-01-11T02:56:38.232Z,8.95
2023-01-11T02:59:31.805Z,9.07
2023-01-11T03:02:20.254Z,9.12
2023-01-11T03:05:14.018Z,9.27
2023-01-11T03:08:06.288Z,9.38
2023-01-11T03:11:03.275Z,9.27
2023-01-11T03:13:57.783Z,9.23
2023-01-11T03:16:53.004Z,9.29
2023-01-11T03:19:45.536Z,9.22
2023-01-11T03:22:41.675Z,9.25
2023-01-11T03:25:34.758Z,9.18
2023-01-11T03:28:28.466Z,9.11
2023-01-11T03:31:21.799Z,9.11
2023-01-11T03:34:17.175Z,9.07
2023-01-11T03:37:09.253Z,9.14
2023-01-11T03:40:04.143Z,9.12
2023-01-11T03:43:12.707Z,9.12
2023-01-11T03:46:03.915Z,9.00
2023-01-11T03:48:55.121Z,9.12
2023-01-11T03:51:44.908Z,9.13
2023-01-11T03:54:34.420Z,9.18
2023-01-11T03:57:25.789Z,9.24
2023-01-11T04:00:14.829Z,9.30
2023-01-11T04:03:03.710Z,9.39
2023-01-11T04:05:54.377Z,9.46
2023-01-11T04:08:42.807Z,9.40
2023-01-11T04:11:31.375Z,9.51
2023-01-11T04:14:21.307Z,9.50
2023-01-11T04:17:09.744Z,9.47
2023-01-11T04:19:58.166Z,9.49
2023-01-11T04:22:46.576Z,9.68
2023-01-11T04:25:35.063Z,9.73
2023-01-11T04:28:23.510Z,9.72
2023-01-11T04:31:13.717Z,9.63
2023-01-11T04:34:02.212Z,9.72
2023-01-11T04:36:50.710Z,10.09
2023-01-11T04:39:39.268Z,10.09
2023-01-11T04:42:27.754Z,10.11
2023-01-11T04:45:16.461Z,10.25
2023-01-11T04:48:06.867Z,10.28
2023-01-11T04:50:55.337Z,10.25
2023-01-11T04:53:43.735Z,10.18
2023-01-11T04:56:32.351Z,10.07
2023-01-11T04:59:20.801Z,10.20
2023-01-11T05:02:09.324Z,10.33
2023-01-11T05:04:59.094Z,10.23
2023-01-11T05:07:49.518Z,10.40
2023-01-11T05:10:37.915Z,10.37
2023-01-11T05:13:41.542Z,10.39
2023-01-11T05:16:30.083Z,10.41
2023-01-11T05:19:18.817Z,10.54
2023-01-11T05:22:08.783Z,10.63
2023-01-11T05:24:57.242Z,10.72
2023-01-11T05:27:45.730Z,10.78
2023-01-11T05:30:34.279Z,10.68
2023-01-11T05:33:22.954Z,10.83
2023-01-11T05:36:13.677Z,10.68
2023-01-11T05:39:05.127Z,10.63
2023-01-11T05:41:53.678Z,10.64
2023-01-11T05:44:59.511Z,10.61
2023-01-11T05:47:48.019Z,10.59
2023-01-11T05:50:36.452Z,10.70
2023-01-11T05:53:25.242Z,10.57
2023-01-11T05:56:15.106Z,10.63
2023-01-11T05:59:03.910Z,10.68
2023-01-11T06:01:52.490Z,10.80
2023-01-11T06:04:40.969Z,10.76
2023-01-11T06:07:29.376Z,10.92
2023-01-11T06:10:17.936Z,10.81
2023-01-11T06:13:25.186Z,10.86
2023-01-11T06:16:15.954Z,10.73
2023-01-11T06:19:04.671Z,10.59
2023-01-11T06:21:53.211Z,10.65
2023-01-11T06:24:41.641Z,10.61
2023-01-11T06:27:30.116Z,10.61
2023-01-11T06:30:20.662Z,10.69
2023-01-11T06:33:09.122Z,10.68
2023-01-11T06:35:58.024Z,10.70
2023-01-11T06:38:46.597Z,10.57
2023-01-11T06:41:35.023Z,10.68
2023-01-11T06:44:23.471Z,10.61
2023-01-11T06:47:13.336Z,10.53
2023-01-11T06:50:01.833Z,10.62
2023-01-11T06:52:54.490Z,10.62
2023-01-11T06:55:43.001Z,10.48
2023-01-11T06:58:31.521Z,10.79
2023-01-11T07:01:20.154Z,10.81
2023-01-11T07:04:10.081Z,10.84
2023-01-11T07:06:59.089Z,10.91
2023-01-11T07:09:47.528Z,10.88
2023-01-11T07:12:36.077Z,10.82
2023-01-11T07:15:24.623Z,10.73
2023-01-11T07:18:13.398Z,10.58
2023-01-11T07:21:03.442Z,10.77
2023-01-11T07:23:52.921Z,10.81
2023-01-11T07:26:42.043Z,10.94
2023-01-11T07:29:30.694Z,10.94
2023-01-11T07:32:19.138Z,10.91
2023-01-11T07:35:08.657Z,10.98
2023-01-11T07:37:58.473Z,11.07
2023-01-11T07:40:46.932Z,11.10
2023-01-11T07:43:34.410Z,11.06
2023-01-11T07:46:22.977Z,11.09
2023-01-11T07:49:12.000Z,11.14
2023-01-11T07:52:00.475Z,11.17
2023-01-11T07:54:50.332Z,11.29
2023-01-11T07:57:38.837Z,11.34
2023-01-11T08:00:27.538Z,11.30
2023-01-11T08:03:16.071Z,11.26
2023-01-11T08:06:04.815Z,11.32
2023-01-11T08:08:53.326Z,11.40
2023-01-11T08:11:57.054Z,11.37
2023-01-11T08:14:45.734Z,11.30
2023-01-11T08:17:35.762Z,11.24
2023-01-11T08:20:24.496Z,11.31
2023-01-11T08:23:12.937Z,11.36
2023-01-11T08:26:01.447Z,11.17
2023-01-11T08:28:51.314Z,11.20
2023-01-11T08:31:39.937Z,11.33
2023-01-11T08:34:29.575Z,11.30
2023-01-11T08:37:18.199Z,11.10
2023-01-11T08:40:07.942Z,11.25
2023-01-11T08:42:57.159Z,11.17
2023-01-11T08:45:47.118Z,11.25
2023-01-11T08:48:36.093Z,11.27
2023-01-11T08:51:24.552Z,11.37
2023-01-11T08:54:14.486Z,11.48
2023-01-11T08:57:02.962Z,11.49
2023-01-11T08:59:51.518Z,11.65
2023-01-11T09:02:41.497Z,11.67
2023-01-11T09:05:30.116Z,11.71
2023-01-11T09:08:18.624Z,11.67
2023-01-11T09:11:27.059Z,11.57
2023-01-11T09:14:15.568Z,11.67
2023-01-11T09:17:04.091Z,11.65
2023-01-11T09:19:53.975Z,11.72
2023-01-11T09:22:43.091Z,11.59
2023-01-11T09:25:31.700Z,11.50
2023-01-11T09:28:20.136Z,11.59
2023-01-11T09:31:09.388Z,11.37
2023-01-11T09:33:57.825Z,11.44
2023-01-11T09:36:49.062Z,11.40
2023-01-11T09:39:39.075Z,11.43
2023-01-11T09:42:37.484Z,11.42
2023-01-11T09:45:28.306Z,11.33
2023-01-11T09:48:26.941Z,11.33
2023-01-11T09:51:17.118Z,11.21
2023-01-11T09:54:10.601Z,11.26
2023-01-11T09:57:08.099Z,11.25
2023-01-11T10:00:04.937Z,11.16
2023-01-11T10:03:10.986Z,11.26
2023-01-11T10:06:09.102Z,11.38
2023-01-11T10:18:33.613Z,11.28
2023-01-11T10:19:31.636Z,11.16
2023-01-11T10:22:18.906Z,11.21
2023-01-11T10:25:18.677Z,11.29
2023-01-11T10:28:09.106Z,11.25
2023-01-11T10:31:11.895Z,11.21
2023-01-11T10:34:30.544Z,11.14
2023-01-11T10:37:40.210Z,10.63
2023-01-11T10:40:39.790Z,10.99
2023-01-11T10:43:29.524Z,11.01
2023-01-11T10:46:19.447Z,11.25
2023-01-11T10:49:32.923Z,11.20
2023-01-11T10:52:32.647Z,11.22
2023-01-11T10:55:27.787Z,11.30
2023-01-11T10:58:30.192Z,11.19
2023-01-11T11:01:28.809Z,11.13
2023-01-11T11:04:33.041Z,11.10
2023-01-11T11:07:26.793Z,11.12
2023-01-11T11:10:21.725Z,11.09
2023-01-11T11:13:14.671Z,11.07
2023-01-11T11:16:09.052Z,11.13
2023-01-11T11:18:59.861Z,11.17
2023-01-11T11:21:48.880Z,11.10
2023-01-11T11:24:39.752Z,10.98
2023-01-11T11:27:31.202Z,11.09
2023-01-11T11:30:28.072Z,11.08
2023-01-11T11:33:21.981Z,11.13
2023-01-11T11:36:12.471Z,11.05
2023-01-11T11:39:11.242Z,10.95
2023-01-11T11:42:07.247Z,10.90
2023-01-11T11:45:16.580Z,10.87
2023-01-11T11:48:06.957Z,10.86
2023-01-11T11:50:58.977Z,10.85
2023-01-11T11:53:51.747Z,10.89
2023-01-11T11:56:41.739Z,10.87
2023-01-11T11:59:33.085Z,10.74
2023-01-11T12:02:23.974Z,10.94
2023-01-11T12:05:12.750Z,10.97
2023-01-11T12:08:02.895Z,10.79
2023-01-11T12:10:54.062Z,10.96
2023-01-11T12:13:43.306Z,10.97
2023-01-11T12:16:33.200Z,10.89
2023-01-11T12:19:35.427Z,10.85
2023-01-11T12:22:25.043Z,9.41
2023-01-11T12:25:22.553Z,10.73
2023-01-11T12:28:18.372Z,10.82
2023-01-11T12:31:12.279Z,10.95
2023-01-11T12:34:08.029Z,10.88
2023-01-11T12:37:05.201Z,10.98
2023-01-11T12:40:00.335Z,10.95
2023-01-11T12:42:59.547Z,10.93
2023-01-11T12:45:51.444Z,10.89
2023-01-11T12:48:49.776Z,10.96
2023-01-11T12:51:58.255Z,10.85
2023-01-11T12:54:54.852Z,10.75
2023-01-11T12:57:59.830Z,10.71
2023-01-11T13:01:04.714Z,10.69
2023-01-11T13:04:25.833Z,10.68
2023-01-11T13:07:25.517Z,10.66
2023-01-11T13:10:22.193Z,10.67
2023-01-11T13:13:14.264Z,10.78
2023-01-11T13:16:09.549Z,10.77
2023-01-11T13:19:01.495Z,10.72
2023-01-11T13:21:53.415Z,10.68
2023-01-11T13:24:45.093Z,10.72
2023-01-11T13:27:34.418Z,10.72
2023-01-11T13:30:24.465Z,10.75
2023-01-11T13:33:18.643Z,10.79
2023-01-11T13:36:22.656Z,10.69
2023-01-11T13:39:15.888Z,10.76
2023-01-11T13:42:06.136Z,10.74
2023-01-11T13:44:57.959Z,10.54
2023-01-11T13:47:49.749Z,10.75
2023-01-11T13:50:44.697Z,10.76
2023-01-11T13:53:37.864Z,10.73
2023-01-11T13:56:31.219Z,10.71
2023-01-11T13:59:23.181Z,10.74
2023-01-11T14:02:16.887Z,10.63
2023-01-11T14:05:09.007Z,10.69
2023-01-11T14:08:15.226Z,10.65
2023-01-11T14:11:11.420Z,10.75
2023-01-11T14:14:14.224Z,10.71
2023-01-11T14:17:23.570Z,10.82
2023-01-11T14:20:19.491Z,10.76
2023-01-11T14:23:13.126Z,10.64
2023-01-11T14:26:16.701Z,10.71
2023-01-11T14:29:18.828Z,10.73
2023-01-11T14:32:31.882Z,10.78
2023-01-11T14:35:53.367Z,10.70
2023-01-11T14:39:28.246Z,10.73
2023-01-11T14:42:49.610Z,10.71
2023-01-11T14:45:52.176Z,10.70
2023-01-11T14:48:45.464Z,10.72
2023-01-11T14:51:38.977Z,10.67
2023-01-11T14:54:31.303Z,10.71
2023-01-11T14:57:37.734Z,10.55
2023-01-11T15:01:04.367Z,10.65
2023-01-11T15:03:57.338Z,10.61
2023-01-11T15:06:54.484Z,10.58
2023-01-11T15:09:46.342Z,10.56
2023-01-11T15:12:36.563Z,10.56
2023-01-11T15:15:50.359Z,10.63
2023-01-11T15:18:45.550Z,10.60
2023-01-11T15:21:36.758Z,10.50
2023-01-11T15:24:29.066Z,9.88
2023-01-11T15:27:26.534Z,10.50
2023-01-11T15:30:39.514Z,10.39
2023-01-11T15:33:46.196Z,10.39
2023-01-11T15:37:31.322Z,10.40
2023-01-11T15:40:21.672Z,10.45
2023-01-11T15:43:31.496Z,10.38
2023-01-11T15:46:56.538Z,10.35
2023-01-11T15:50:13.531Z,10.24
2023-01-11T15:53:32.225Z,10.26
2023-01-11T15:56:44.435Z,10.21
2023-01-11T15:59:59.366Z,10.06
2023-01-11T16:03:12.146Z,10.15
2023-01-11T16:06:09.059Z,10.05
2023-01-11T16:09:03.141Z,9.92
2023-01-11T16:12:00.527Z,9.86
2023-01-11T16:15:20.155Z,9.92
2023-01-11T16:18:13.670Z,10.01
2023-01-11T16:21:03.882Z,9.90
2023-01-11T16:23:52.551Z,9.88
2023-01-11T16:26:41.844Z,9.82
2023-01-11T16:29:34.570Z,9.89
2023-01-11T16:32:27.013Z,9.91
2023-01-11T16:35:20.161Z,9.94
2023-01-11T16:38:15.176Z,9.71
2023-01-11T16:41:06.742Z,9.97
2023-01-11T16:44:00.039Z,9.95
2023-01-11T16:47:11.431Z,9.77
2023-01-11T16:50:20.905Z,9.88
2023-01-11T16:53:13.090Z,9.88
2023-01-11T16:56:05.571Z,9.74
2023-01-11T16:59:06.638Z,9.51
2023-01-11T17:01:56.435Z,9.56
2023-01-11T17:04:51.821Z,9.34
2023-01-11T17:07:41.753Z,9.16
2023-01-11T17:10:31.063Z,9.24
2023-01-11T17:13:51.113Z,9.26
2023-01-11T17:16:42.055Z,9.26
2023-01-11T17:19:32.409Z,9.15
2023-01-11T17:22:23.656Z,9.28
2023-01-11T17:25:19.868Z,9.16
2023-01-11T17:28:15.670Z,8.79
2023-01-11T17:31:04.132Z,9.12
2023-01-11T17:34:01.845Z,8.98
2023-01-11T17:36:50.808Z,9.09
2023-01-11T17:39:43.141Z,9.05
2023-01-11T17:42:50.638Z,8.88
2023-01-11T17:45:39.499Z,8.84
2023-01-11T17:48:28.724Z,8.88
2023-01-11T17:51:25.259Z,8.83
2023-01-11T17:54:20.377Z,8.68
2023-01-11T17:57:10.020Z,8.75
2023-01-11T18:00:18.741Z,8.65
2023-01-11T18:03:10.922Z,8.64
2023-01-11T18:06:00.098Z,8.62
2023-01-11T18:08:49.657Z,8.63
2023-01-11T18:11:40.879Z,8.50
2023-01-11T18:14:32.949Z,8.50
2023-01-11T18:17:35.918Z,8.31
2023-01-11T18:20:48.551Z,8.44
2023-01-11T18:23:37.069Z,8.41
2023-01-11T18:26:28.103Z,8.47
2023-01-11T18:29:20.126Z,8.41
2023-01-11T18:32:11.251Z,8.36
2023-01-11T18:35:02.406Z,8.33
2023-01-11T18:37:51.006Z,8.40
2023-01-11T18:40:39.565Z,8.34
2023-01-11T18:43:29.649Z,8.50
2023-01-11T18:46:18.314Z,8.44
2023-01-11T18:49:06.929Z,8.62
2023-01-11T18:51:56.830Z,8.56
2023-01-11T18:54:45.757Z,8.60
2023-01-11T18:57:34.298Z,8.47
2023-01-11T19:00:23.111Z,7.73
2023-01-11T19:06:07.447Z,8.59
2023-01-11T19:08:57.317Z,8.64
2023-01-11T19:11:45.753Z,8.55
2023-01-11T19:14:34.370Z,8.65
2023-01-11T19:17:23.026Z,8.60
2023-01-11T19:20:14.005Z,8.53
2023-01-11T19:23:02.607Z,8.57
2023-01-11T19:25:58.671Z,8.55
2023-01-11T19:28:47.200Z,8.40
2023-01-11T19:31:35.872Z,8.53
2023-01-11T19:34:24.840Z,8.55
2023-01-11T19:37:13.392Z,8.46
2023-01-11T19:40:02.579Z,8.41
2023-01-11T19:42:52.566Z,8.34
2023-01-11T19:45:41.491Z,8.46
2023-01-11T19:48:33.877Z,7.61
2023-01-11T19:51:22.372Z,8.35
2023-01-11T19:54:13.105Z,8.51
2023-01-11T19:57:01.717Z,8.44
2023-01-11T19:59:51.801Z,8.04
2023-01-11T20:02:40.776Z,8.44
2023-01-11T20:05:29.413Z,8.37
2023-01-11T20:08:18.050Z,6.93
2023-01-11T20:11:08.185Z,8.44
2023-01-11T20:13:56.745Z,8.37
2023-01-11T20:16:46.638Z,8.44
2023-01-11T20:19:35.204Z,8.47
2023-01-11T20:24:56.078Z,8.53
2023-01-11T20:27:44.855Z,8.47
2023-01-11T20:30:33.408Z,8.51
2023-01-11T20:33:23.452Z,8.40
2023-01-11T20:36:13.944Z,8.48
2023-01-11T20:39:02.529Z,8.50
2023-01-11T20:41:51.102Z,8.48
2023-01-11T20:44:39.621Z,8.51
2023-01-11T20:47:28.136Z,8.61
2023-01-11T20:50:18.208Z,8.61
2023-01-11T20:53:08.876Z,8.53
2023-01-11T20:55:58.046Z,8.45
2023-01-11T20:58:48.360Z,8.54
2023-01-11T21:01:37.459Z,8.29
2023-01-11T21:04:26.147Z,8.46
2023-01-11T21:07:15.973Z,8.59
2023-01-11T21:10:04.848Z,8.61
2023-01-11T21:12:56.440Z,8.56
2023-01-11T21:15:44.981Z,8.52
2023-01-11T21:18:33.465Z,8.48
2023-01-11T21:21:21.951Z,8.56
2023-01-11T21:24:13.747Z,8.53
2023-01-11T21:27:02.353Z,8.54
2023-01-11T21:29:50.885Z,8.42
2023-01-11T21:32:39.393Z,8.48
2023-01-11T21:35:28.121Z,8.44
2023-01-11T21:38:16.596Z,8.42
2023-01-11T21:41:07.937Z,8.52
2023-01-11T21:43:56.371Z,8.55
2023-01-11T21:46:45.543Z,8.58
2023-01-11T21:49:34.457Z,8.39
2023-01-11T21:52:22.922Z,8.56
2023-01-11T21:55:11.937Z,8.55
2023-01-11T21:58:01.792Z,8.41
2023-01-11T22:00:50.322Z,8.53
2023-01-11T22:03:39.251Z,8.45
2023-01-11T22:06:27.763Z,8.44
2023-01-11T22:09:16.447Z,8.43
2023-01-11T22:12:05.137Z,8.41
2023-01-11T22:14:55.201Z,8.38
2023-01-11T22:17:43.751Z,8.35
2023-01-11T22:20:32.249Z,8.30
2023-01-11T22:23:20.935Z,8.22
2023-01-11T22:26:11.013Z,8.11
2023-01-11T22:29:15.798Z,8.12
2023-01-11T22:32:06.054Z,8.24
2023-01-11T22:34:54.513Z,8.14
2023-01-11T22:37:42.931Z,8.16
2023-01-11T22:40:31.345Z,8.22
2023-01-11T22:43:19.840Z,8.30
2023-01-11T22:46:08.346Z,8.20
2023-01-11T22:48:58.652Z,8.26
2023-01-11T22:51:47.111Z,8.06
2023-01-11T22:54:35.612Z,8.15
2023-01-11T22:57:24.150Z,7.94
2023-01-11T23:00:13.504Z,8.11
2023-01-11T23:03:01.972Z,8.09
2023-01-11T23:05:51.846Z,8.05
2023-01-11T23:08:42.301Z,8.18
2023-01-11T23:11:46.723Z,8.14
2023-01-11T23:14:35.160Z,8.12
2023-01-11T23:17:23.687Z,7.99
2023-01-11T23:20:13.183Z,8.18
2023-01-11T23:23:03.100Z,8.17
2023-01-11T23:25:54.988Z,8.14
2023-01-11T23:28:43.432Z,8.25
2023-01-11T23:31:31.945Z,8.23
2023-01-11T23:34:20.408Z,8.40
2023-01-11T23:37:09.331Z,8.43
2023-01-11T23:39:59.194Z,8.51
2023-01-11T23:42:46.696Z,8.58
2023-01-11T23:45:37.965Z,8.62
2023-01-11T23:48:26.504Z,8.68
2023-01-11T23:51:14.973Z,8.68
2023-01-11T23:54:04.597Z,8.64
2023-01-11T23:56:54.462Z,8.83
2023-01-11T23:59:43.921Z,8.79
